WXM80 ListenWXM80 Stop

You find our weather info also at:

UK Metoffice

WeatherCloud

Weather Underground

Northeastern Weather Network

AWEKAS

Citizen Weather Observer Program (CWOP)

HAMweather, WeatherForYou, PWS Weather


Weather Underground History page Text

Daily Summary for July 24, 2017 Units:  English    Metric   Both
« Previous Day
Next Day »
Daily Weekly Monthly Yearly Custom
  High: Low: Average:
Temperature: 70.7 °F 61.4 °F 65.6 °F
Dew Point: 67.7 °F 59.2 °F 63.3 °F
Humidity: 97 % 85 % 92 %
Wind Speed: 11.3 mph 0.0 mph 3.9 mph
Wind Gust: 19.6 mph - -
Wind:- - ENE
Pressure: 29.92 in 29.71 in -
Precipitation: 0.54 in    
Historical Graphs
 
 
Tabular Data for July 24, 2017
Time Temperature Dew Point Pressure Wind Wind Speed Wind Gust Humidity Rainfall Rate (Hourly)
00:00 70.7 °F 66.0 °F 29.83 in SE 0.4 mph 3.5 mph 85 % 0.00 in
00:05 70.7 °F 66.0 °F 29.84 in SE 0.2 mph 2.3 mph 85 % 0.00 in
00:10 70.7 °F 66.0 °F 29.84 in SE 0.3 mph 3.5 mph 85 % 0.00 in
00:15 70.7 °F 66.0 °F 29.84 in SE 0.6 mph 2.3 mph 85 % 0.00 in
00:20 70.7 °F 66.3 °F 29.83 in SE 0.1 mph 1.2 mph 86 % 0.00 in
00:25 70.7 °F 66.3 °F 29.84 in SE 0.3 mph 2.3 mph 86 % 0.00 in
00:30 70.7 °F 66.6 °F 29.83 in Calm     87 % 0.00 in
00:35 70.7 °F 66.3 °F 29.82 in SE 0.1 mph 1.2 mph 86 % 0.00 in
00:40 70.7 °F 66.6 °F 29.81 in SE 0.9 mph 2.3 mph 87 % 0.00 in
00:45 70.6 °F 66.5 °F 29.81 in SE 0.5 mph 3.0 mph 87 % 0.00 in
00:50 70.6 °F 66.5 °F 29.81 in SE 0.8 mph 2.3 mph 87 % 0.00 in
00:55 70.5 °F 66.4 °F 29.81 in SE 0.5 mph 2.0 mph 87 % 0.00 in
01:00 70.5 °F 66.8 °F 29.80 in SE 1.0 mph 2.3 mph 88 % 0.00 in
01:05 70.5 °F 67.1 °F 29.80 in SE 1.5 mph 3.5 mph 89 % 0.00 in
01:10 70.5 °F 67.1 °F 29.80 in SE 2.2 mph 3.5 mph 89 % 0.00 in
01:15 70.6 °F 67.2 °F 29.80 in East 1.8 mph 4.6 mph 89 % 0.00 in
01:20 70.6 °F 67.2 °F 29.80 in East 1.8 mph 3.5 mph 89 % 0.00 in
01:25 70.6 °F 67.2 °F 29.80 in East 1.4 mph 2.3 mph 89 % 0.00 in
01:30 70.6 °F 67.2 °F 29.80 in East 1.9 mph 3.5 mph 89 % 0.00 in
01:35 70.6 °F 67.2 °F 29.80 in East 2.1 mph 3.5 mph 89 % 0.00 in
01:39 70.6 °F 67.2 °F 29.80 in East 1.8 mph 3.5 mph 89 % 0.00 in
01:44 70.7 °F 67.3 °F 29.80 in ESE 1.2 mph 2.3 mph 89 % 0.00 in
01:49 70.7 °F 67.3 °F 29.80 in ESE 1.5 mph 3.5 mph 89 % 0.00 in
01:59 70.7 °F 67.6 °F 29.80 in East 1.1 mph 2.3 mph 90 % 0.00 in
02:04 70.6 °F 67.5 °F 29.80 in East 0.8 mph 2.3 mph 90 % 0.00 in
02:09 70.6 °F 67.5 °F 29.80 in East 0.6 mph 2.3 mph 90 % 0.00 in
02:14 70.5 °F 67.4 °F 29.80 in East 0.3 mph 2.0 mph 90 % 0.00 in
02:19 70.5 °F 67.4 °F 29.80 in East 0.3 mph 1.2 mph 90 % 0.00 in
02:24 70.4 °F 67.3 °F 29.80 in East 0.3 mph 1.2 mph 90 % 0.00 in
02:29 70.4 °F 67.0 °F 29.80 in East 0.1 mph 1.2 mph 89 % 0.00 in
02:34 70.4 °F 67.3 °F 29.80 in East 0.6 mph 1.2 mph 90 % 0.00 in
02:39 70.4 °F 67.3 °F 29.79 in East 0.7 mph 2.3 mph 90 % 0.00 in
02:44 70.3 °F 67.2 °F 29.79 in East 1.0 mph 2.3 mph 90 % 0.00 in
02:49 70.3 °F 67.2 °F 29.79 in ESE 0.8 mph 2.3 mph 90 % 0.00 in
02:54 70.3 °F 67.2 °F 29.79 in East 0.9 mph 2.3 mph 90 % 0.00 in
02:59 70.3 °F 67.5 °F 29.78 in East 0.9 mph 2.3 mph 91 % 0.00 in
03:04 70.2 °F 67.4 °F 29.77 in East 1.4 mph 3.5 mph 91 % 0.00 in
03:09 70.1 °F 67.7 °F 29.77 in East 1.9 mph 3.5 mph 92 % 0.00 in
03:14 69.9 °F 67.5 °F 29.77 in ESE 2.3 mph 3.5 mph 92 % 0.00 in
03:19 69.7 °F 67.3 °F 29.77 in ESE 1.5 mph 3.5 mph 92 % 0.00 in
03:24 69.6 °F 67.5 °F 29.77 in ESE 2.4 mph 3.5 mph 93 % 0.02 in
03:29 69.4 °F 67.3 °F 29.76 in ESE 2.2 mph 3.5 mph 93 % 0.02 in
03:34 69.4 °F 67.3 °F 29.76 in East 1.4 mph 3.5 mph 93 % 0.02 in
03:40 69.3 °F 67.5 °F 29.77 in ESE 0.7 mph 2.3 mph 94 % 0.02 in
03:45 69.2 °F 67.4 °F 29.77 in ESE 0.3 mph 1.2 mph 94 % 0.02 in
03:50 69.2 °F 67.4 °F 29.77 in ESE 0.3 mph 2.3 mph 94 % 0.02 in
03:55 69.1 °F 67.3 °F 29.77 in ESE 0.3 mph 2.3 mph 94 % 0.02 in
04:00 69.1 °F 67.3 °F 29.77 in ESE 0.9 mph 2.3 mph 94 % 0.02 in
04:05 69.0 °F 67.2 °F 29.77 in ESE 0.6 mph 2.3 mph 94 % 0.02 in
04:10 68.9 °F 67.1 °F 29.77 in ESE 0.1 mph 1.2 mph 94 % 0.02 in
04:15 68.9 °F 67.1 °F 29.77 in ESE 1.2 mph 2.3 mph 94 % 0.02 in
04:20 68.8 °F 67.0 °F 29.76 in East 1.4 mph 3.5 mph 94 % 0.01 in
04:25 68.8 °F 67.3 °F 29.77 in East 1.3 mph 2.3 mph 95 % 0.00 in
04:30 68.7 °F 66.9 °F 29.76 in East 1.7 mph 3.5 mph 94 % 0.00 in
04:35 68.7 °F 66.9 °F 29.76 in SE 1.4 mph 3.5 mph 94 % 0.00 in
04:40 68.7 °F 67.2 °F 29.76 in ENE 2.0 mph 3.5 mph 95 % 0.00 in
04:41 68.7 °F 67.2 °F 29.75 in ENE 1.6 mph 3.5 mph 95 % 0.00 in
04:46 68.7 °F 67.2 °F 29.75 in East 2.6 mph 3.5 mph 95 % 0.00 in
04:51 68.6 °F 67.1 °F 29.75 in East 1.7 mph 3.5 mph 95 % 0.00 in
04:56 68.6 °F 67.1 °F 29.75 in ESE 1.9 mph 3.5 mph 95 % 0.00 in
05:01 68.5 °F 67.0 °F 29.75 in East 2.3 mph 4.6 mph 95 % 0.00 in
05:06 68.5 °F 67.0 °F 29.75 in East 2.1 mph 3.5 mph 95 % 0.00 in
05:11 68.5 °F 67.0 °F 29.74 in East 3.1 mph 5.0 mph 95 % 0.01 in
05:16 68.4 °F 66.9 °F 29.73 in East 3.9 mph 5.0 mph 95 % 0.01 in
05:21 68.3 °F 66.8 °F 29.74 in East 4.1 mph 5.8 mph 95 % 0.01 in
05:26 68.2 °F 66.7 °F 29.74 in East 3.0 mph 5.8 mph 95 % 0.01 in
05:31 68.1 °F 66.6 °F 29.74 in East 2.3 mph 5.0 mph 95 % 0.01 in
05:36 68.0 °F 66.2 °F 29.75 in ESE 2.1 mph 3.5 mph 94 % 0.01 in
05:41 67.9 °F 66.4 °F 29.75 in ESE 2.4 mph 3.5 mph 95 % 0.02 in
05:46 67.9 °F 66.4 °F 29.75 in East 2.4 mph 3.5 mph 95 % 0.02 in
05:51 68.0 °F 66.5 °F 29.75 in East 1.5 mph 3.5 mph 95 % 0.03 in
05:57 68.0 °F 66.5 °F 29.75 in East 1.3 mph 2.3 mph 95 % 0.04 in
06:02 68.0 °F 66.5 °F 29.74 in East 2.2 mph 3.5 mph 95 % 0.04 in
06:07 68.0 °F 66.5 °F 29.74 in East 2.8 mph 4.6 mph 95 % 0.05 in
06:12 67.9 °F 66.7 °F 29.75 in ESE 1.8 mph 3.5 mph 96 % 0.05 in
06:17 67.9 °F 66.7 °F 29.75 in East 1.9 mph 3.5 mph 96 % 0.06 in
06:22 67.9 °F 66.7 °F 29.75 in East 1.8 mph 3.5 mph 96 % 0.07 in
06:27 67.9 °F 66.7 °F 29.74 in East 2.2 mph 3.5 mph 96 % 0.08 in
06:32 67.9 °F 66.7 °F 29.74 in East 1.6 mph 3.5 mph 96 % 0.09 in
06:37 67.9 °F 66.7 °F 29.74 in East 2.9 mph 5.0 mph 96 % 0.09 in
06:42 67.7 °F 66.5 °F 29.72 in East 2.6 mph 4.6 mph 96 % 0.09 in
06:47 67.7 °F 66.5 °F 29.73 in East 2.0 mph 3.5 mph 96 % 0.09 in
06:53 67.8 °F 66.9 °F 29.74 in East 0.9 mph 2.3 mph 97 % 0.09 in
06:58 67.8 °F 66.9 °F 29.73 in East 1.0 mph 2.0 mph 97 % 0.08 in
07:03 67.9 °F 67.0 °F 29.73 in East 1.8 mph 4.6 mph 97 % 0.08 in
07:08 67.9 °F 67.0 °F 29.72 in East 2.2 mph 3.5 mph 97 % 0.08 in
07:13 67.9 °F 67.0 °F 29.73 in East 1.8 mph 3.5 mph 97 % 0.07 in
07:18 67.8 °F 66.9 °F 29.73 in East 2.3 mph 3.5 mph 97 % 0.06 in
07:23 67.8 °F 66.9 °F 29.73 in East 2.5 mph 4.6 mph 97 % 0.07 in
07:28 67.7 °F 66.8 °F 29.72 in East 2.0 mph 3.5 mph 97 % 0.06 in
07:33 67.8 °F 66.9 °F 29.72 in ENE 2.2 mph 3.5 mph 97 % 0.06 in
07:38 67.8 °F 66.9 °F 29.72 in East 2.9 mph 4.6 mph 97 % 0.06 in
07:43 67.8 °F 66.9 °F 29.72 in NE 3.0 mph 4.6 mph 97 % 0.06 in
07:48 67.7 °F 66.8 °F 29.73 in ENE 2.3 mph 3.5 mph 97 % 0.06 in
07:58 67.6 °F 66.7 °F 29.73 in ENE 2.9 mph 4.6 mph 97 % 0.06 in
08:03 67.6 °F 66.7 °F 29.73 in East 3.9 mph 5.8 mph 97 % 0.05 in
08:09 67.5 °F 66.6 °F 29.73 in East 3.4 mph 5.8 mph 97 % 0.04 in
08:14 67.5 °F 66.6 °F 29.72 in ENE 3.4 mph 5.8 mph 97 % 0.04 in
08:19 67.5 °F 66.6 °F 29.72 in ENE 3.8 mph 5.0 mph 97 % 0.03 in
08:24 67.5 °F 66.6 °F 29.72 in East 3.8 mph 5.0 mph 97 % 0.03 in
08:29 67.5 °F 66.6 °F 29.72 in East 4.5 mph 5.8 mph 97 % 0.02 in
08:34 67.5 °F 66.6 °F 29.73 in East 4.5 mph 6.9 mph 97 % 0.02 in
08:39 67.5 °F 66.6 °F 29.73 in East 4.4 mph 6.9 mph 97 % 0.02 in
08:44 67.5 °F 66.6 °F 29.72 in ENE 4.6 mph 5.0 mph 97 % 0.01 in
08:49 67.4 °F 66.5 °F 29.73 in East 4.5 mph 6.9 mph 97 % 0.01 in
08:54 67.4 °F 66.5 °F 29.72 in ENE 5.1 mph 5.8 mph 97 % 0.01 in
08:59 67.4 °F 66.5 °F 29.73 in ENE 4.3 mph 5.0 mph 97 % 0.00 in
09:04 67.3 °F 66.4 °F 29.73 in ENE 4.6 mph 6.0 mph 97 % 0.00 in
09:09 67.3 °F 66.4 °F 29.73 in NNE 4.9 mph 6.9 mph 97 % 0.00 in
09:15 67.1 °F 66.2 °F 29.72 in East 4.6 mph 6.9 mph 97 % 0.00 in
09:20 67.0 °F 66.1 °F 29.72 in ENE 6.1 mph 10.4 mph 97 % 0.01 in
09:25 66.9 °F 66.0 °F 29.71 in ENE 5.3 mph 8.1 mph 97 % 0.01 in
09:30 66.6 °F 65.7 °F 29.71 in ENE 9.5 mph 18.4 mph 97 % 0.01 in
09:35 66.3 °F 65.4 °F 29.71 in East 5.7 mph 9.2 mph 97 % 0.01 in
09:40 66.2 °F 65.3 °F 29.71 in ENE 8.8 mph 11.5 mph 97 % 0.01 in
09:45 65.8 °F 64.9 °F 29.71 in East 7.5 mph 11.5 mph 97 % 0.01 in
09:50 65.6 °F 64.7 °F 29.72 in ENE 6.8 mph 11.5 mph 97 % 0.01 in
09:55 65.3 °F 64.4 °F 29.72 in ENE 10.3 mph 16.1 mph 97 % 0.01 in
10:00 65.0 °F 64.1 °F 29.72 in East 11.3 mph 16.1 mph 97 % 0.01 in
10:05 64.6 °F 63.4 °F 29.72 in East 8.9 mph 17.0 mph 96 % 0.01 in
10:10 64.4 °F 63.5 °F 29.73 in East 7.8 mph 11.5 mph 97 % 0.01 in
10:15 64.4 °F 63.2 °F 29.73 in East 10.9 mph 19.6 mph 96 % 0.00 in
10:16 64.3 °F 63.1 °F 29.73 in ENE 8.4 mph 15.0 mph 96 % 0.00 in
10:21 64.1 °F 62.9 °F 29.72 in NE 10.8 mph 17.3 mph 96 % 0.00 in
10:26 64.0 °F 62.8 °F 29.73 in East 9.7 mph 13.0 mph 96 % 0.00 in
10:31 63.8 °F 62.6 °F 29.73 in East 8.7 mph 12.0 mph 96 % 0.01 in
10:36 63.7 °F 62.5 °F 29.73 in East 8.4 mph 12.7 mph 96 % 0.01 in
10:41 63.6 °F 62.4 °F 29.74 in ENE 4.2 mph 16.1 mph 96 % 0.01 in
10:46 63.6 °F 62.4 °F 29.74 in East 6.8 mph 12.7 mph 96 % 0.01 in
10:51 63.6 °F 62.4 °F 29.74 in ENE 8.1 mph 12.7 mph 96 % 0.01 in
11:01 63.5 °F 62.3 °F 29.74 in ENE 9.4 mph 16.0 mph 96 % 0.01 in
11:07 63.5 °F 62.3 °F 29.74 in ENE 7.6 mph 11.0 mph 96 % 0.01 in
11:12 63.4 °F 62.5 °F 29.74 in East 7.4 mph 12.7 mph 97 % 0.01 in
11:17 63.2 °F 62.0 °F 29.74 in ENE 10.8 mph 17.3 mph 96 % 0.02 in
11:22 63.2 °F 62.0 °F 29.75 in ENE 9.4 mph 13.8 mph 96 % 0.02 in
11:27 63.0 °F 61.8 °F 29.76 in NE 5.5 mph 13.8 mph 96 % 0.02 in
11:32 63.0 °F 61.8 °F 29.76 in NE 5.4 mph 11.5 mph 96 % 0.01 in
11:37 63.0 °F 61.8 °F 29.75 in East 9.2 mph 16.1 mph 96 % 0.02 in
11:42 62.8 °F 61.6 °F 29.75 in East 9.5 mph 16.1 mph 96 % 0.02 in
11:47 62.7 °F 61.5 °F 29.75 in ENE 7.4 mph 15.0 mph 96 % 0.03 in
11:52 62.7 °F 61.8 °F 29.76 in ENE 5.8 mph 12.7 mph 97 % 0.03 in
11:57 62.7 °F 61.8 °F 29.76 in East 8.4 mph 17.3 mph 97 % 0.04 in
12:02 62.6 °F 61.7 °F 29.76 in NE 6.8 mph 13.8 mph 97 % 0.04 in
12:09 62.7 °F 61.8 °F 29.75 in ENE 7.0 mph 12.0 mph 97 % 0.05 in
12:14 62.7 °F 61.8 °F 29.75 in ENE 5.3 mph 6.9 mph 97 % 0.05 in
12:19 62.7 °F 61.8 °F 29.75 in NE 9.3 mph 13.8 mph 97 % 0.05 in
12:24 62.5 °F 61.6 °F 29.75 in ENE 5.8 mph 11.5 mph 97 % 0.05 in
12:29 62.4 °F 61.5 °F 29.75 in ENE 6.6 mph 12.7 mph 97 % 0.05 in
12:34 62.4 °F 61.5 °F 29.75 in NNE 3.8 mph 12.7 mph 97 % 0.06 in
12:39 62.3 °F 61.4 °F 29.76 in NNE 7.6 mph 12.7 mph 97 % 0.05 in
12:44 62.1 °F 61.2 °F 29.76 in NE 5.2 mph 10.4 mph 97 % 0.06 in
12:49 62.1 °F 61.2 °F 29.75 in ENE 7.0 mph 18.4 mph 97 % 0.05 in
12:54 62.1 °F 61.2 °F 29.76 in NNW 7.3 mph 15.0 mph 97 % 0.06 in
12:59 62.0 °F 61.1 °F 29.76 in NNE 9.2 mph 13.8 mph 97 % 0.05 in
13:04 62.0 °F 61.1 °F 29.76 in ENE 5.8 mph 9.2 mph 97 % 0.06 in
13:09 61.8 °F 60.9 °F 29.77 in NE 8.2 mph 11.5 mph 97 % 0.05 in
13:14 61.6 °F 60.4 °F 29.77 in North 8.9 mph 17.3 mph 96 % 0.06 in
13:19 61.4 °F 60.2 °F 29.77 in East 7.6 mph 18.4 mph 96 % 0.05 in
13:24 61.4 °F 60.5 °F 29.77 in NNE 5.4 mph 10.4 mph 97 % 0.06 in
13:29 61.5 °F 60.6 °F 29.77 in ENE 4.3 mph 7.0 mph 97 % 0.06 in
13:30 61.5 °F 60.6 °F 29.77 in NNE 4.8 mph 10.4 mph 97 % 0.05 in
13:35 61.6 °F 60.7 °F 29.77 in NNE 4.5 mph 9.2 mph 97 % 0.05 in
13:40 61.7 °F 60.8 °F 29.78 in NNE 6.2 mph 12.0 mph 97 % 0.05 in
13:45 61.5 °F 60.3 °F 29.79 in NNE 6.6 mph 12.7 mph 96 % 0.05 in
13:50 61.5 °F 60.3 °F 29.78 in North 9.0 mph 15.0 mph 96 % 0.06 in
13:55 61.4 °F 60.2 °F 29.79 in North 4.8 mph 12.7 mph 96 % 0.05 in
14:00 61.4 °F 60.2 °F 29.79 in NE 5.2 mph 11.5 mph 96 % 0.06 in
14:05 61.4 °F 60.2 °F 29.78 in North 8.8 mph 11.5 mph 96 % 0.05 in
14:10 61.5 °F 60.3 °F 29.79 in NNW 5.9 mph 10.0 mph 96 % 0.05 in
14:15 61.5 °F 60.3 °F 29.79 in NE 5.6 mph 10.4 mph 96 % 0.05 in
14:20 61.5 °F 60.3 °F 29.79 in NE 7.4 mph 11.5 mph 96 % 0.05 in
14:25 61.5 °F 60.1 °F 29.79 in NE 4.5 mph 12.7 mph 95 % 0.04 in
14:30 61.7 °F 60.5 °F 29.79 in North 5.2 mph 11.5 mph 96 % 0.05 in
14:31 61.7 °F 60.5 °F 29.79 in North 4.7 mph 10.4 mph 96 % 0.05 in
14:36 61.8 °F 60.6 °F 29.80 in NNE 3.8 mph 11.5 mph 96 % 0.05 in
14:41 61.9 °F 60.7 °F 29.80 in North 5.3 mph 12.7 mph 96 % 0.05 in
14:47 62.0 °F 60.6 °F 29.79 in NNE 7.1 mph 13.8 mph 95 % 0.05 in
14:52 62.1 °F 60.7 °F 29.80 in NNE 5.9 mph 10.4 mph 95 % 0.05 in
14:57 62.2 °F 60.8 °F 29.80 in NE 5.6 mph 11.5 mph 95 % 0.05 in
15:02 62.3 °F 60.6 °F 29.80 in NNE 4.7 mph 8.1 mph 94 % 0.05 in
15:07 62.5 °F 60.7 °F 29.80 in NE 5.3 mph 11.5 mph 94 % 0.05 in
15:12 62.7 °F 60.9 °F 29.79 in ENE 4.9 mph 12.7 mph 94 % 0.04 in
15:17 62.9 °F 61.1 °F 29.79 in NE 5.2 mph 8.1 mph 94 % 0.04 in
15:22 63.0 °F 61.2 °F 29.80 in ENE 4.1 mph 8.0 mph 94 % 0.05 in
15:27 63.1 °F 61.3 °F 29.80 in ENE 4.6 mph 9.2 mph 94 % 0.04 in
15:32 63.1 °F 61.0 °F 29.80 in NNE 4.9 mph 9.0 mph 93 % 0.04 in
15:37 63.3 °F 61.2 °F 29.80 in North 5.0 mph 10.0 mph 93 % 0.03 in
15:42 63.4 °F 61.3 °F 29.80 in ENE 4.5 mph 10.4 mph 93 % 0.04 in
15:47 63.4 °F 61.3 °F 29.80 in ENE 4.3 mph 7.0 mph 93 % 0.04 in
15:52 63.5 °F 61.4 °F 29.80 in East 3.6 mph 5.8 mph 93 % 0.03 in
15:57 63.6 °F 61.5 °F 29.80 in East 3.0 mph 4.6 mph 93 % 0.03 in
16:02 63.7 °F 61.3 °F 29.81 in ENE 3.4 mph 6.9 mph 92 % 0.03 in
16:07 63.8 °F 61.4 °F 29.81 in ENE 3.8 mph 9.2 mph 92 % 0.03 in
16:12 63.9 °F 61.5 °F 29.81 in NE 3.3 mph 6.9 mph 92 % 0.03 in
16:17 64.0 °F 61.6 °F 29.81 in NE 5.4 mph 8.1 mph 92 % 0.03 in
16:22 64.1 °F 61.7 °F 29.81 in NNE 3.3 mph 8.1 mph 92 % 0.02 in
16:28 64.2 °F 61.5 °F 29.81 in NNE 5.8 mph 9.0 mph 91 % 0.02 in
16:33 64.2 °F 61.5 °F 29.81 in NNE 3.8 mph 10.0 mph 91 % 0.03 in
16:38 64.4 °F 62.0 °F 29.81 in NNE 2.9 mph 6.0 mph 92 % 0.03 in
16:43 64.5 °F 62.1 °F 29.81 in NE 3.7 mph 5.8 mph 92 % 0.02 in
16:48 64.7 °F 62.0 °F 29.81 in NNE 4.1 mph 8.1 mph 91 % 0.02 in
16:53 64.8 °F 61.8 °F 29.81 in NNE 3.0 mph 6.9 mph 90 % 0.02 in
16:58 64.9 °F 62.2 °F 29.81 in NNE 2.8 mph 6.9 mph 91 % 0.02 in
17:03 65.0 °F 62.3 °F 29.81 in NE 3.3 mph 9.2 mph 91 % 0.02 in
17:08 65.1 °F 62.1 °F 29.81 in ENE 5.7 mph 9.2 mph 90 % 0.02 in
17:13 65.2 °F 62.2 °F 29.81 in NE 4.4 mph 8.1 mph 90 % 0.02 in
17:18 65.2 °F 61.9 °F 29.81 in NNE 4.3 mph 6.9 mph 89 % 0.02 in
17:23 65.2 °F 61.9 °F 29.81 in North 4.7 mph 8.1 mph 89 % 0.02 in
17:28 65.2 °F 61.6 °F 29.81 in East 2.9 mph 6.9 mph 88 % 0.02 in
17:33 65.3 °F 62.0 °F 29.82 in ENE 3.0 mph 5.0 mph 89 % 0.01 in
17:38 65.3 °F 61.7 °F 29.81 in ENE 3.6 mph 6.9 mph 88 % 0.02 in
17:43 65.4 °F 61.8 °F 29.82 in NE 1.2 mph 3.5 mph 88 % 0.02 in
17:48 65.4 °F 61.4 °F 29.82 in NE 3.1 mph 6.9 mph 87 % 0.02 in
17:53 65.4 °F 61.4 °F 29.82 in ENE 1.5 mph 3.5 mph 87 % 0.02 in
17:58 65.4 °F 61.8 °F 29.82 in ENE 2.4 mph 4.6 mph 88 % 0.02 in
18:04 65.4 °F 61.8 °F 29.82 in NE 3.4 mph 4.6 mph 88 % 0.01 in
18:08 65.4 °F 61.8 °F 29.83 in ENE 3.2 mph 3.5 mph 88 % 0.01 in
18:13 65.4 °F 61.4 °F 29.83 in NE 2.1 mph 3.5 mph 87 % 0.02 in
18:18 65.3 °F 61.3 °F 29.83 in NNE 2.0 mph 6.9 mph 87 % 0.02 in
18:24 65.2 °F 61.2 °F 29.83 in ENE 3.5 mph 4.0 mph 87 % 0.02 in
18:29 65.2 °F 60.9 °F 29.83 in ENE 3.8 mph 9.2 mph 86 % 0.02 in
18:34 65.2 °F 60.9 °F 29.83 in NE 1.9 mph 5.8 mph 86 % 0.02 in
18:39 65.1 °F 61.1 °F 29.84 in NNE 4.0 mph 6.9 mph 87 % 0.01 in
18:44 65.0 °F 61.0 °F 29.85 in North 5.0 mph 6.9 mph 87 % 0.01 in
18:49 65.0 °F 61.0 °F 29.84 in NNE 3.6 mph 5.0 mph 87 % 0.01 in
18:54 64.9 °F 60.9 °F 29.84 in NE 1.9 mph 4.6 mph 87 % 0.01 in
18:59 64.9 °F 60.9 °F 29.85 in NE 3.7 mph 6.0 mph 87 % 0.02 in
19:04 64.9 °F 61.3 °F 29.84 in NNE 0.9 mph 2.3 mph 88 % 0.02 in
19:09 64.7 °F 60.7 °F 29.84 in NE 2.3 mph 6.9 mph 87 % 0.02 in
19:14 64.6 °F 60.6 °F 29.85 in NE 1.3 mph 4.0 mph 87 % 0.01 in
19:19 64.5 °F 60.9 °F 29.85 in NNE 2.3 mph 3.5 mph 88 % 0.01 in
19:24 64.5 °F 60.9 °F 29.85 in NNE 0.7 mph 4.6 mph 88 % 0.01 in
19:29 64.4 °F 60.8 °F 29.85 in NE 3.1 mph 6.0 mph 88 % 0.01 in
19:34 64.3 °F 60.7 °F 29.85 in ENE 5.0 mph 9.2 mph 88 % 0.01 in
19:39 64.2 °F 60.2 °F 29.85 in ENE 2.9 mph 8.1 mph 87 % 0.01 in
19:45 64.1 °F 60.2 °F 29.86 in ENE 3.3 mph 6.9 mph 87 % 0.02 in
19:50 64.1 °F 60.5 °F 29.86 in NE 2.2 mph 4.6 mph 88 % 0.02 in
19:55 64.0 °F 60.4 °F 29.86 in NE 1.9 mph 6.9 mph 88 % 0.02 in
20:00 63.9 °F 60.3 °F 29.86 in NE 2.1 mph 4.6 mph 88 % 0.01 in
20:05 63.9 °F 60.3 °F 29.85 in East 3.8 mph 5.8 mph 88 % 0.01 in
20:10 63.7 °F 59.8 °F 29.86 in NE 3.1 mph 8.1 mph 87 % 0.01 in
20:15 63.7 °F 60.1 °F 29.85 in NE 2.2 mph 6.9 mph 88 % 0.01 in
20:20 63.6 °F 60.0 °F 29.85 in NE 6.9 mph 11.5 mph 88 % 0.01 in
20:25 63.5 °F 59.9 °F 29.85 in ENE 3.7 mph 6.9 mph 88 % 0.01 in
20:30 63.5 °F 59.9 °F 29.86 in ENE 3.9 mph 9.2 mph 88 % 0.01 in
20:33 63.5 °F 59.6 °F 29.86 in ENE 3.3 mph 8.0 mph 87 % 0.01 in
20:38 63.4 °F 59.5 °F 29.85 in NE 5.9 mph 10.4 mph 87 % 0.02 in
20:43 63.4 °F 59.8 °F 29.85 in East 3.7 mph 9.2 mph 88 % 0.02 in
20:48 63.3 °F 59.7 °F 29.85 in ENE 7.1 mph 9.2 mph 88 % 0.01 in
20:53 63.3 °F 59.7 °F 29.85 in East 4.3 mph 8.1 mph 88 % 0.01 in
20:58 63.2 °F 59.3 °F 29.85 in ENE 4.2 mph 8.1 mph 87 % 0.01 in
21:03 63.1 °F 59.5 °F 29.86 in NNE 5.8 mph 8.1 mph 88 % 0.01 in
21:08 63.1 °F 59.5 °F 29.86 in NE 3.1 mph 5.8 mph 88 % 0.01 in
21:13 63.1 °F 59.5 °F 29.86 in ENE 4.8 mph 6.9 mph 88 % 0.01 in
21:18 63.0 °F 59.4 °F 29.86 in NE 2.7 mph 9.2 mph 88 % 0.01 in
21:23 63.0 °F 59.4 °F 29.86 in NE 4.8 mph 6.9 mph 88 % 0.01 in
21:33 62.9 °F 59.3 °F 29.86 in NE 5.2 mph 8.1 mph 88 % 0.01 in
21:38 62.8 °F 59.2 °F 29.87 in ENE 3.5 mph 6.9 mph 88 % 0.00 in
21:43 62.8 °F 59.2 °F 29.87 in ENE 4.3 mph 5.8 mph 88 % 0.01 in
21:48 62.8 °F 59.2 °F 29.87 in ENE 2.7 mph 8.1 mph 88 % 0.01 in
21:53 62.8 °F 59.5 °F 29.88 in NE 5.5 mph 8.0 mph 89 % 0.01 in
21:58 62.9 °F 59.6 °F 29.88 in ENE 4.6 mph 8.1 mph 89 % 0.01 in
22:03 62.9 °F 59.6 °F 29.88 in ENE 5.5 mph 8.0 mph 89 % 0.01 in
22:08 63.0 °F 59.7 °F 29.89 in ENE 3.1 mph 4.6 mph 89 % 0.01 in
22:13 63.0 °F 59.7 °F 29.88 in ENE 3.8 mph 10.4 mph 89 % 0.01 in
22:18 63.1 °F 60.1 °F 29.89 in East 2.0 mph 3.5 mph 90 % 0.01 in
22:23 63.1 °F 59.8 °F 29.89 in ENE 7.2 mph 8.1 mph 89 % 0.01 in
22:29 63.1 °F 59.8 °F 29.89 in ENE 2.8 mph 9.2 mph 89 % 0.01 in
22:34 63.1 °F 59.8 °F 29.89 in ENE 5.5 mph 9.2 mph 89 % 0.01 in
22:39 63.1 °F 59.8 °F 29.89 in East 5.7 mph 11.5 mph 89 % 0.01 in
22:44 63.1 °F 59.5 °F 29.88 in ENE 5.7 mph 10.4 mph 88 % 0.00 in
22:49 63.2 °F 59.9 °F 29.89 in ENE 4.9 mph 9.2 mph 89 % 0.00 in
22:54 63.2 °F 59.9 °F 29.89 in ENE 4.4 mph 10.4 mph 89 % 0.01 in
22:59 63.1 °F 59.8 °F 29.89 in ENE 5.5 mph 9.0 mph 89 % 0.01 in
23:04 63.1 °F 59.5 °F 29.89 in East 7.1 mph 11.5 mph 88 % 0.01 in
23:09 63.2 °F 59.9 °F 29.89 in ENE 5.3 mph 6.9 mph 89 % 0.01 in
23:14 63.2 °F 59.9 °F 29.89 in East 4.2 mph 5.8 mph 89 % 0.01 in
23:19 63.2 °F 59.9 °F 29.90 in ENE 4.4 mph 8.1 mph 89 % 0.01 in
23:24 63.2 °F 59.6 °F 29.90 in East 3.0 mph 8.1 mph 88 % 0.01 in
23:29 63.2 °F 59.9 °F 29.90 in ENE 2.4 mph 4.6 mph 89 % 0.01 in
23:35 63.2 °F 59.9 °F 29.91 in NE 4.0 mph 6.9 mph 89 % 0.01 in
23:40 63.3 °F 60.0 °F 29.91 in ENE 4.3 mph 5.8 mph 89 % 0.01 in
23:45 63.3 °F 60.0 °F 29.91 in ENE 3.8 mph 8.1 mph 89 % 0.01 in
23:50 63.3 °F 60.0 °F 29.92 in NE 2.3 mph 9.2 mph 89 % 0.01 in
23:55 63.3 °F 60.0 °F 29.91 in ENE 3.2 mph 9.2 mph 89 % 0.00 in
Crab Meadow Weather
Compliments of Weather Underground - 3 mb

Script developed by  Jim McMurry - jmcmurry@mwt.net Adapted for the template by  Wim van der Kuil - Leuven-Template.eu

Extremes: The highest temperature ever recorded in the United States was 134 degrees F at Greenland Ranch in Death Valley, California.